createdAt,value
2022-12-19T00:02:20.041Z,43.97
2022-12-19T00:04:46.733Z,44.85
2022-12-19T00:07:13.314Z,51.40
2022-12-19T00:09:40.074Z,37.75
2022-12-19T00:12:06.735Z,40.10
2022-12-19T00:14:35.315Z,48.60
2022-12-19T00:17:02.108Z,42.72
2022-12-19T00:19:29.035Z,50.58
2022-12-19T00:21:55.599Z,41.63
2022-12-19T00:24:22.200Z,40.42
2022-12-19T00:26:49.168Z,47.17
2022-12-19T00:29:16.230Z,42.80
2022-12-19T00:31:43.027Z,46.35
2022-12-19T00:34:09.762Z,50.58
2022-12-19T00:36:36.369Z,40.83
2022-12-19T00:39:05.719Z,46.40
2022-12-19T00:41:35.636Z,40.05
2022-12-19T00:44:07.256Z,44.47
2022-12-19T00:46:34.451Z,38.38
2022-12-19T00:49:01.235Z,56.42
2022-12-19T00:51:31.026Z,51.03
2022-12-19T00:53:57.898Z,44.22
2022-12-19T00:56:29.060Z,42.30
2022-12-19T00:58:55.928Z,47.22
2022-12-19T01:01:25.835Z,45.50
2022-12-19T01:04:26.691Z,36.55
2022-12-19T01:06:39.204Z,41.10
2022-12-19T01:09:07.820Z,38.08
2022-12-19T01:11:54.361Z,52.47
2022-12-19T01:14:23.232Z,35.53
2022-12-19T01:16:50.712Z,41.30
2022-12-19T01:19:17.446Z,48.88
2022-12-19T01:21:44.131Z,42.20
2022-12-19T01:24:11.216Z,38.03
2022-12-19T01:26:37.814Z,46.17
2022-12-19T01:29:04.987Z,45.22
2022-12-19T01:31:32.648Z,40.42
2022-12-19T01:34:00.286Z,42.10
2022-12-19T01:36:28.241Z,42.50
2022-12-19T01:38:57.048Z,40.72
2022-12-19T01:41:23.785Z,38.92
2022-12-19T01:43:57.158Z,42.10
2022-12-19T01:46:29.000Z,47.80
2022-12-19T01:48:56.337Z,38.63
2022-12-19T01:51:24.611Z,46.55
2022-12-19T01:53:54.658Z,41.47
2022-12-19T01:56:24.115Z,47.03
2022-12-19T01:58:50.876Z,43.72
2022-12-19T02:01:24.107Z,46.95
2022-12-19T02:03:50.757Z,44.58
2022-12-19T02:06:17.429Z,44.67
2022-12-19T02:08:46.094Z,40.20
2022-12-19T02:11:12.680Z,36.00
2022-12-19T02:13:39.385Z,40.85
2022-12-19T02:16:33.727Z,33.35
2022-12-19T02:19:25.003Z,37.53
2022-12-19T02:22:06.922Z,39.80
2022-12-19T02:25:04.717Z,44.00
2022-12-19T02:27:56.170Z,40.20
2022-12-19T02:31:02.797Z,43.30
2022-12-19T02:33:43.486Z,44.55
2022-12-19T02:36:18.774Z,45.78
2022-12-19T02:38:51.488Z,40.10
2022-12-19T02:41:22.268Z,39.47
2022-12-19T02:43:49.615Z,46.63
2022-12-19T02:46:20.504Z,47.88
2022-12-19T02:48:47.207Z,49.42
2022-12-19T02:51:14.023Z,48.38
2022-12-19T02:53:40.884Z,51.63
2022-12-19T02:56:31.376Z,44.17
2022-12-19T02:59:21.237Z,54.90
2022-12-19T03:01:57.679Z,46.95
2022-12-19T03:04:54.266Z,54.30
2022-12-19T03:07:30.318Z,49.50
2022-12-19T03:10:05.282Z,46.30
2022-12-19T03:12:36.959Z,44.65
2022-12-19T03:15:03.819Z,50.75
2022-12-19T03:17:33.901Z,44.53
2022-12-19T03:20:00.627Z,46.17
2022-12-19T03:22:27.277Z,62.55
2022-12-19T03:24:53.874Z,43.25
2022-12-19T03:27:24.965Z,51.85
2022-12-19T03:29:59.500Z,42.28
2022-12-19T03:32:26.199Z,44.78
2022-12-19T03:34:57.733Z,44.50
2022-12-19T03:37:24.702Z,30.67
2022-12-19T03:39:54.268Z,41.65
2022-12-19T03:42:41.126Z,49.75
2022-12-19T03:45:08.037Z,44.00
2022-12-19T03:47:39.507Z,44.78
2022-12-19T03:50:06.529Z,42.80
2022-12-19T03:52:39.872Z,37.20
2022-12-19T03:55:13.588Z,47.42
2022-12-19T03:57:43.037Z,46.53
2022-12-19T04:00:12.790Z,51.22
2022-12-19T04:02:41.409Z,43.90
2022-12-19T04:05:10.419Z,42.50
2022-12-19T04:07:37.061Z,42.55
2022-12-19T04:10:06.416Z,46.33
2022-12-19T04:12:38.127Z,37.72
2022-12-19T04:15:05.414Z,42.85
2022-12-19T04:17:41.063Z,44.58
2022-12-19T04:20:10.888Z,47.35
2022-12-19T04:22:44.410Z,47.55
2022-12-19T04:25:13.861Z,45.47
2022-12-19T04:27:43.560Z,47.22
2022-12-19T04:30:12.633Z,46.20
2022-12-19T04:32:39.383Z,46.63
2022-12-19T04:35:06.170Z,44.17
2022-12-19T04:37:32.871Z,47.92
2022-12-19T04:39:59.807Z,43.25
2022-12-19T04:42:26.507Z,42.03
2022-12-19T04:44:53.139Z,47.35
2022-12-19T04:47:19.783Z,48.28
2022-12-19T04:49:46.423Z,42.25
2022-12-19T04:52:13.193Z,51.10
2022-12-19T04:54:39.810Z,49.13
2022-12-19T04:57:06.734Z,43.00
2022-12-19T04:59:33.411Z,46.30
2022-12-19T05:02:00.160Z,48.65
2022-12-19T05:04:27.062Z,48.50
2022-12-19T05:06:53.979Z,42.38
2022-12-19T05:09:20.667Z,44.50
2022-12-19T05:11:47.292Z,41.65
2022-12-19T05:14:15.557Z,41.03
2022-12-19T05:16:42.267Z,44.42
2022-12-19T05:19:08.868Z,40.58
2022-12-19T05:21:35.534Z,43.58
2022-12-19T05:24:02.205Z,40.63
2022-12-19T05:26:28.902Z,42.35
2022-12-19T05:28:55.661Z,40.40
2022-12-19T05:31:22.318Z,43.88
2022-12-19T05:33:49.390Z,40.78
2022-12-19T05:36:16.409Z,41.80
2022-12-19T05:38:43.066Z,37.03
2022-12-19T05:41:10.936Z,39.90
2022-12-19T05:43:37.644Z,50.28
2022-12-19T05:46:05.038Z,39.53
2022-12-19T05:48:31.731Z,34.22
2022-12-19T05:50:58.434Z,43.00
2022-12-19T05:53:27.407Z,42.72
2022-12-19T05:56:04.032Z,38.45
2022-12-19T05:58:30.931Z,40.03
2022-12-19T06:01:03.041Z,41.63
2022-12-19T06:03:29.692Z,39.05
2022-12-19T06:05:56.642Z,32.72
2022-12-19T06:08:23.297Z,45.00
2022-12-19T06:10:49.924Z,41.38
2022-12-19T06:13:19.742Z,44.35
2022-12-19T06:15:50.187Z,37.50
2022-12-19T06:18:16.832Z,35.15
2022-12-19T06:20:43.473Z,41.45
2022-12-19T06:23:10.075Z,36.25
2022-12-19T06:25:37.638Z,38.03
2022-12-19T06:28:04.489Z,36.22
2022-12-19T06:30:31.210Z,40.88
2022-12-19T06:32:57.802Z,38.60
2022-12-19T06:35:24.435Z,36.38
2022-12-19T06:37:51.001Z,36.53
2022-12-19T06:40:37.582Z,42.63
2022-12-19T06:43:04.346Z,35.22
2022-12-19T06:45:31.278Z,42.10
2022-12-19T06:47:58.015Z,39.00
2022-12-19T06:50:26.182Z,37.90
2022-12-19T06:52:52.776Z,32.63
2022-12-19T06:55:19.825Z,36.72
2022-12-19T06:57:46.769Z,39.05
2022-12-19T07:00:14.255Z,31.33
2022-12-19T07:02:43.395Z,37.13
2022-12-19T07:05:10.110Z,38.10
2022-12-19T07:07:36.738Z,37.97
2022-12-19T07:10:04.813Z,32.50
2022-12-19T07:12:31.463Z,35.00
2022-12-19T07:14:58.101Z,34.72
2022-12-19T07:17:24.793Z,35.83
2022-12-19T07:19:53.329Z,33.33
2022-12-19T07:22:20.025Z,35.38
2022-12-19T07:24:46.683Z,33.13
2022-12-19T07:27:13.338Z,39.53
2022-12-19T07:29:40.086Z,31.98
2022-12-19T07:32:06.792Z,31.02
2022-12-19T07:34:33.503Z,33.60
2022-12-19T07:37:00.194Z,31.35
2022-12-19T07:39:27.085Z,33.15
2022-12-19T07:41:53.774Z,32.75
2022-12-19T07:44:20.373Z,28.10
2022-12-19T07:46:47.915Z,32.20
2022-12-19T07:49:19.595Z,30.58
2022-12-19T07:51:48.997Z,33.50
2022-12-19T07:54:15.690Z,30.90
2022-12-19T07:56:42.281Z,37.42
2022-12-19T07:59:09.453Z,32.42
2022-12-19T08:01:36.087Z,31.05
2022-12-19T08:04:02.826Z,34.67
2022-12-19T08:06:29.859Z,29.33
2022-12-19T08:08:57.047Z,24.95
2022-12-19T08:11:27.311Z,29.38
2022-12-19T08:13:54.441Z,32.15
2022-12-19T08:16:21.323Z,32.63
2022-12-19T08:18:48.164Z,29.63
2022-12-19T08:21:14.906Z,27.58
2022-12-19T08:23:41.603Z,26.60
2022-12-19T08:26:11.620Z,31.75
2022-12-19T08:28:38.397Z,27.70
2022-12-19T08:31:07.601Z,28.02
2022-12-19T08:33:34.549Z,25.15
2022-12-19T08:36:06.246Z,32.20
2022-12-19T08:38:32.909Z,30.30
2022-12-19T08:40:59.626Z,21.27
2022-12-19T08:43:27.224Z,26.08
2022-12-19T08:45:54.113Z,24.67
2022-12-19T08:48:20.852Z,23.65
2022-12-19T08:50:52.739Z,20.13
2022-12-19T08:53:25.793Z,22.15
2022-12-19T08:55:56.548Z,19.83
2022-12-19T08:58:24.057Z,20.48
2022-12-19T09:00:57.530Z,17.00
2022-12-19T09:03:29.666Z,17.67
2022-12-19T09:06:18.728Z,19.38
2022-12-19T09:08:46.519Z,19.65
2022-12-19T09:11:14.863Z,21.02
2022-12-19T09:13:41.758Z,16.65
2022-12-19T09:16:14.410Z,19.50
2022-12-19T09:18:47.872Z,18.98
2022-12-19T09:21:15.206Z,16.60
2022-12-19T09:23:42.115Z,20.98
2022-12-19T09:26:11.387Z,15.73
2022-12-19T09:28:38.726Z,16.90
2022-12-19T09:31:07.173Z,15.25
2022-12-19T09:33:41.238Z,17.48
2022-12-19T09:36:13.747Z,20.05
2022-12-19T09:38:40.506Z,19.63
2022-12-19T09:41:31.586Z,25.48
2022-12-19T09:44:38.085Z,20.98
2022-12-19T09:47:13.469Z,20.20
2022-12-19T09:49:43.482Z,22.77
2022-12-19T09:52:19.050Z,19.42
2022-12-19T09:54:56.215Z,21.88
2022-12-19T09:57:27.660Z,19.33
2022-12-19T09:59:56.951Z,24.63
2022-12-19T10:06:53.625Z,22.05
2022-12-19T10:08:19.344Z,19.70
2022-12-19T10:12:37.861Z,17.23
2022-12-19T10:17:28.616Z,15.65
2022-12-19T10:20:03.686Z,14.20
2022-12-19T10:22:55.858Z,18.33
2022-12-19T10:26:01.505Z,13.77
2022-12-19T10:28:48.407Z,16.48
2022-12-19T10:31:22.022Z,15.02
2022-12-19T10:34:07.801Z,13.50
2022-12-19T10:37:12.907Z,16.08
2022-12-19T10:39:34.161Z,16.27
2022-12-19T10:42:11.244Z,33.30
2022-12-19T10:44:38.519Z,14.07
2022-12-19T10:47:05.201Z,14.80
2022-12-19T10:49:32.175Z,18.95
2022-12-19T10:52:00.785Z,15.88
2022-12-19T10:54:43.832Z,11.90
2022-12-19T10:57:29.935Z,15.57
2022-12-19T10:59:58.337Z,13.25
2022-12-19T11:02:45.629Z,13.00
2022-12-19T11:05:22.444Z,12.98
2022-12-19T11:11:27.193Z,13.45
2022-12-19T11:17:11.722Z,14.90
2022-12-19T11:21:06.087Z,12.85
2022-12-19T11:29:34.684Z,11.20
2022-12-19T11:29:42.129Z,12.20
2022-12-19T11:30:45.425Z,13.02
2022-12-19T11:30:48.368Z,15.45
2022-12-19T11:34:31.016Z,15.20
2022-12-19T11:37:19.879Z,22.75
2022-12-19T11:39:53.226Z,18.35
2022-12-19T11:42:41.577Z,18.02
2022-12-19T11:45:14.896Z,27.75
2022-12-19T11:47:47.403Z,19.45
2022-12-19T11:50:18.389Z,15.23
2022-12-19T11:53:16.795Z,18.13
2022-12-19T11:55:51.152Z,18.67
2022-12-19T11:58:17.765Z,21.95
2022-12-19T12:00:55.835Z,27.70
2022-12-19T12:04:03.326Z,20.98
2022-12-19T12:06:34.457Z,19.17
2022-12-19T12:14:43.112Z,19.35
2022-12-19T12:20:01.587Z,17.25
2022-12-19T12:29:21.029Z,17.42
2022-12-19T12:31:15.728Z,18.50
2022-12-19T12:31:23.833Z,17.92
2022-12-19T12:31:42.623Z,19.35
2022-12-19T12:35:09.496Z,15.68
2022-12-19T12:35:45.385Z,17.33
2022-12-19T12:37:15.899Z,18.67
2022-12-19T12:38:37.292Z,18.05
2022-12-19T12:41:13.793Z,19.73
2022-12-19T12:46:38.263Z,25.90
2022-12-19T12:49:07.134Z,19.02
2022-12-19T12:51:33.798Z,22.92
2022-12-19T12:54:05.009Z,18.73
2022-12-19T12:56:35.542Z,25.55
2022-12-19T13:01:40.903Z,29.55
2022-12-19T13:04:21.510Z,26.65
2022-12-19T13:09:29.736Z,24.10
2022-12-19T13:12:22.153Z,24.42
2022-12-19T13:14:49.967Z,23.70
2022-12-19T13:17:44.269Z,19.70
2022-12-19T13:20:39.321Z,27.45
2022-12-19T13:23:28.983Z,21.55
2022-12-19T13:25:55.632Z,18.25
2022-12-19T13:39:49.182Z,22.05
2022-12-19T13:40:08.757Z,46.83
2022-12-19T13:43:09.322Z,40.75
2022-12-19T13:45:36.840Z,18.58
2022-12-19T13:48:05.176Z,14.40
2022-12-19T13:50:37.439Z,47.33
2022-12-19T13:53:11.541Z,41.22
2022-12-19T13:55:39.725Z,47.13
2022-12-19T13:58:06.412Z,47.10
2022-12-19T14:00:36.085Z,37.22
2022-12-19T14:03:03.149Z,43.67
2022-12-19T14:06:15.369Z,34.10
2022-12-19T14:08:21.837Z,38.40
2022-12-19T14:11:55.084Z,28.55
2022-12-19T14:14:08.158Z,32.58
2022-12-19T14:16:44.667Z,34.75
2022-12-19T14:19:21.167Z,25.08
2022-12-19T14:22:08.802Z,30.73
2022-12-19T14:24:34.523Z,25.85
2022-12-19T14:28:21.859Z,25.67
2022-12-19T14:30:27.367Z,28.48
2022-12-19T14:33:47.268Z,31.45
2022-12-19T14:36:11.336Z,30.02
2022-12-19T14:39:23.670Z,31.67
2022-12-19T14:41:08.180Z,30.23
2022-12-19T14:43:58.648Z,34.95
2022-12-19T14:54:07.890Z,29.80
2022-12-19T14:54:15.965Z,39.70
2022-12-19T14:54:31.210Z,38.22
2022-12-19T14:56:13.131Z,29.75
2022-12-19T14:58:56.143Z,31.92
2022-12-19T15:01:25.256Z,28.30
2022-12-19T15:04:48.070Z,34.53
2022-12-19T15:07:06.674Z,40.55
2022-12-19T15:10:58.873Z,37.33
2022-12-19T15:14:48.215Z,46.95
2022-12-19T15:15:56.540Z,51.28
2022-12-19T15:18:26.789Z,45.95
2022-12-19T15:20:56.297Z,36.10
2022-12-19T15:23:23.246Z,43.35
2022-12-19T15:26:07.280Z,48.40
2022-12-19T15:28:42.064Z,37.25
2022-12-19T15:31:43.967Z,35.28
2022-12-19T15:34:41.546Z,32.40
2022-12-19T15:37:13.885Z,33.58
2022-12-19T15:39:40.961Z,36.53
2022-12-19T15:42:27.420Z,40.90
2022-12-19T15:44:55.649Z,37.00
2022-12-19T15:47:29.884Z,37.92
2022-12-19T15:49:58.191Z,42.03
2022-12-19T15:52:25.607Z,35.78
2022-12-19T15:54:52.354Z,38.92
2022-12-19T15:57:27.695Z,32.90
2022-12-19T15:59:54.310Z,47.88
2022-12-19T16:02:24.327Z,56.55
2022-12-19T16:04:51.305Z,61.75
2022-12-19T16:07:20.001Z,47.97
2022-12-19T16:09:46.701Z,48.90
2022-12-19T16:12:16.169Z,39.58
2022-12-19T16:14:43.568Z,35.92
2022-12-19T16:17:15.024Z,38.50
2022-12-19T16:19:41.562Z,41.20
2022-12-19T16:22:18.150Z,40.03
2022-12-19T16:24:44.751Z,43.28
2022-12-19T16:27:19.240Z,35.75
2022-12-19T16:29:46.108Z,38.45
2022-12-19T16:32:13.456Z,44.35
2022-12-19T16:34:40.115Z,40.05
2022-12-19T16:37:06.946Z,38.80
2022-12-19T16:39:33.566Z,43.15
2022-12-19T16:42:00.169Z,38.65
2022-12-19T16:44:26.834Z,37.42
2022-12-19T16:46:53.596Z,38.08
2022-12-19T16:49:22.781Z,39.35
2022-12-19T16:51:49.592Z,36.95
2022-12-19T16:54:16.439Z,39.60
2022-12-19T16:56:48.010Z,35.05
2022-12-19T16:59:33.461Z,37.53
2022-12-19T17:02:00.383Z,38.28
2022-12-19T17:04:27.375Z,38.85
2022-12-19T17:06:54.297Z,38.72
2022-12-19T17:09:22.902Z,39.35
2022-12-19T17:11:52.171Z,38.50
2022-12-19T17:14:20.906Z,31.95
2022-12-19T17:16:47.881Z,37.55
2022-12-19T17:19:19.126Z,33.63
2022-12-19T17:21:45.841Z,34.55
2022-12-19T17:24:13.556Z,35.80
2022-12-19T17:26:40.197Z,36.83
2022-12-19T17:29:06.802Z,31.80
2022-12-19T17:31:38.061Z,36.53
2022-12-19T17:34:08.281Z,34.35
2022-12-19T17:36:37.870Z,39.58
2022-12-19T17:39:25.281Z,38.63
2022-12-19T17:41:57.794Z,35.00
2022-12-19T17:46:51.292Z,32.78
2022-12-19T17:49:33.199Z,34.30
2022-12-19T17:51:59.984Z,32.20
2022-12-19T17:54:27.430Z,34.63
2022-12-19T17:56:54.815Z,31.33
2022-12-19T17:59:21.514Z,26.30
2022-12-19T18:01:48.472Z,30.48
2022-12-19T18:04:17.564Z,23.35
2022-12-19T18:06:44.723Z,28.63
2022-12-19T18:09:20.111Z,22.40
2022-12-19T18:11:47.841Z,25.70
2022-12-19T18:14:14.540Z,32.67
2022-12-19T18:16:41.276Z,18.92
2022-12-19T18:19:12.860Z,18.27
2022-12-19T18:21:39.488Z,17.77
2022-12-19T18:24:10.740Z,17.63
2022-12-19T18:26:37.407Z,17.15
2022-12-19T18:29:04.287Z,18.25
2022-12-19T18:31:31.003Z,19.95
2022-12-19T18:34:05.380Z,16.48
2022-12-19T18:36:36.998Z,18.23
2022-12-19T18:39:03.653Z,17.58
2022-12-19T18:41:32.001Z,21.48
2022-12-19T18:43:58.619Z,18.77
2022-12-19T18:46:26.882Z,16.40
2022-12-19T18:48:53.826Z,20.08
2022-12-19T18:51:23.085Z,23.80
2022-12-19T18:53:50.119Z,17.50
2022-12-19T18:56:16.901Z,18.60
2022-12-19T18:58:43.577Z,14.70
2022-12-19T19:01:13.762Z,13.98
2022-12-19T19:03:40.890Z,14.43
2022-12-19T19:06:25.563Z,13.07
2022-12-19T19:08:52.474Z,19.63
2022-12-19T19:11:20.362Z,15.45
2022-12-19T19:13:46.968Z,16.73
2022-12-19T19:16:17.268Z,17.58
2022-12-19T19:18:44.703Z,19.90
2022-12-19T19:21:12.390Z,18.63
2022-12-19T19:23:46.878Z,16.60
2022-12-19T19:26:13.516Z,15.65
2022-12-19T19:28:40.205Z,17.98
2022-12-19T19:31:08.865Z,16.33
2022-12-19T19:33:37.908Z,17.52
2022-12-19T19:36:12.029Z,17.40
2022-12-19T19:38:39.989Z,16.52
2022-12-19T19:41:06.614Z,18.90
2022-12-19T19:43:35.510Z,16.70
2022-12-19T19:46:02.686Z,20.00
2022-12-19T19:48:29.704Z,24.05
2022-12-19T19:50:56.764Z,21.23
2022-12-19T19:53:23.555Z,17.92
2022-12-19T19:56:05.681Z,20.77
2022-12-19T19:58:32.516Z,18.10
2022-12-19T20:00:59.333Z,24.00
2022-12-19T20:03:26.285Z,26.17
2022-12-19T20:06:00.701Z,24.83
2022-12-19T20:08:27.884Z,34.47
2022-12-19T20:10:56.795Z,38.22
2022-12-19T20:13:23.455Z,35.90
2022-12-19T20:15:50.660Z,31.50
2022-12-19T20:18:17.720Z,28.88
2022-12-19T20:20:46.772Z,30.52
2022-12-19T20:23:13.375Z,32.55
2022-12-19T20:25:42.055Z,38.20
2022-12-19T20:28:08.710Z,24.98
2022-12-19T20:30:37.030Z,18.83
2022-12-19T20:33:03.749Z,23.70
2022-12-19T20:35:30.378Z,26.83
2022-12-19T20:37:57.024Z,20.85
2022-12-19T20:40:23.676Z,26.08
2022-12-19T20:42:50.392Z,19.83
2022-12-19T20:45:17.196Z,22.05
2022-12-19T20:47:43.867Z,22.95
2022-12-19T20:50:12.868Z,18.38
2022-12-19T20:52:39.473Z,24.63
2022-12-19T20:55:06.717Z,24.42
2022-12-19T20:57:33.371Z,19.40
2022-12-19T21:00:00.013Z,25.00
2022-12-19T21:02:26.886Z,18.75
2022-12-19T21:04:53.733Z,22.65
2022-12-19T21:07:20.337Z,20.95
2022-12-19T21:09:47.899Z,20.75
2022-12-19T21:12:14.606Z,22.90
2022-12-19T21:14:41.245Z,18.50
2022-12-19T21:17:07.976Z,19.58
2022-12-19T21:19:34.570Z,25.70
2022-12-19T21:22:01.184Z,18.83
2022-12-19T21:24:29.184Z,21.17
2022-12-19T21:26:58.248Z,14.45
2022-12-19T21:29:25.379Z,21.27
2022-12-19T21:31:52.082Z,19.25
2022-12-19T21:34:18.803Z,21.38
2022-12-19T21:36:45.445Z,17.50
2022-12-19T21:39:13.046Z,22.00
2022-12-19T21:41:39.664Z,16.77
2022-12-19T21:44:06.289Z,17.10
2022-12-19T21:46:33.407Z,17.23
2022-12-19T21:49:00.645Z,18.25
2022-12-19T21:51:28.703Z,24.80
2022-12-19T21:53:56.538Z,21.63
2022-12-19T21:56:31.720Z,20.73
2022-12-19T21:59:00.584Z,20.52
2022-12-19T22:01:27.706Z,19.98
2022-12-19T22:03:59.815Z,22.63
2022-12-19T22:06:28.869Z,21.02
2022-12-19T22:08:55.557Z,18.45
2022-12-19T22:11:22.220Z,18.15
2022-12-19T22:13:49.177Z,25.10
2022-12-19T22:16:15.991Z,25.55
2022-12-19T22:18:42.773Z,24.27
2022-12-19T22:21:11.544Z,16.77
2022-12-19T22:23:38.182Z,20.13
2022-12-19T22:26:07.182Z,17.05
2022-12-19T22:28:36.140Z,15.73
2022-12-19T22:31:03.277Z,17.83
2022-12-19T22:33:29.994Z,12.77
2022-12-19T22:35:56.853Z,17.95
2022-12-19T22:38:23.492Z,14.00
2022-12-19T22:40:50.196Z,14.05
2022-12-19T22:43:16.825Z,14.88
2022-12-19T22:45:43.465Z,13.15
2022-12-19T22:48:11.135Z,19.33
2022-12-19T22:50:37.838Z,13.85
2022-12-19T22:53:08.156Z,14.23
2022-12-19T22:55:39.172Z,14.18
2022-12-19T22:58:05.809Z,12.07
2022-12-19T23:00:32.499Z,12.63
2022-12-19T23:02:59.325Z,13.82
2022-12-19T23:05:26.196Z,16.45
2022-12-19T23:07:52.836Z,14.40
2022-12-19T23:10:19.423Z,12.40
2022-12-19T23:12:46.025Z,14.68
2022-12-19T23:15:12.777Z,12.38
2022-12-19T23:17:39.466Z,14.90
2022-12-19T23:20:08.529Z,14.48
2022-12-19T23:22:35.186Z,13.85
2022-12-19T23:25:02.068Z,11.77
2022-12-19T23:27:28.704Z,15.18
2022-12-19T23:29:55.321Z,10.85
2022-12-19T23:32:22.104Z,12.45
2022-12-19T23:34:48.835Z,12.73
2022-12-19T23:37:15.464Z,13.70
2022-12-19T23:39:42.129Z,12.63
2022-12-19T23:42:08.972Z,11.05
2022-12-19T23:44:35.942Z,14.93
2022-12-19T23:47:03.759Z,12.00
2022-12-19T23:49:31.690Z,12.82
2022-12-19T23:51:58.397Z,13.95
2022-12-19T23:54:25.056Z,11.85
2022-12-19T23:56:53.305Z,14.63
2022-12-19T23:59:19.924Z,15.77
